sensor_id;sensor_type;location;lat;lon;timestamp;P1;durP1;ratioP1;P2;durP2;ratioP2
19384;SDS011;9828;54.122;17.974;2023-08-31T00:02:48;2.40;;;1.80;;
19384;SDS011;9828;54.122;17.974;2023-08-31T00:08:09;3.28;;;1.92;;
19384;SDS011;9828;54.122;17.974;2023-08-31T00:13:32;4.28;;;1.67;;
19384;SDS011;9828;54.122;17.974;2023-08-31T00:18:54;2.80;;;2.25;;
19384;SDS011;9828;54.122;17.974;2023-08-31T00:24:16;2.10;;;1.90;;
19384;SDS011;9828;54.122;17.974;2023-08-31T00:29:37;1.92;;;1.65;;
19384;SDS011;9828;54.122;17.974;2023-08-31T00:35:00;2.22;;;2.00;;
19384;SDS011;9828;54.122;17.974;2023-08-31T00:40:21;2.67;;;1.95;;
19384;SDS011;9828;54.122;17.974;2023-08-31T00:45:42;3.25;;;1.95;;
19384;SDS011;9828;54.122;17.974;2023-08-31T00:51:05;3.00;;;1.88;;
19384;SDS011;9828;54.122;17.974;2023-08-31T00:56:29;2.45;;;1.77;;
19384;SDS011;9828;54.122;17.974;2023-08-31T01:01:53;3.17;;;2.28;;
19384;SDS011;9828;54.122;17.974;2023-08-31T01:12:42;2.22;;;1.63;;
19384;SDS011;9828;54.122;17.974;2023-08-31T01:18:10;1.95;;;1.40;;
19384;SDS011;9828;54.122;17.974;2023-08-31T01:29:15;2.22;;;1.98;;
19384;SDS011;9828;54.122;17.974;2023-08-31T01:34:36;3.08;;;1.80;;
19384;SDS011;9828;54.122;17.974;2023-08-31T01:40:02;2.08;;;1.70;;
19384;SDS011;9828;54.122;17.974;2023-08-31T01:45:48;1.65;;;1.52;;
19384;SDS011;9828;54.122;17.974;2023-08-31T01:51:10;2.15;;;1.30;;
19384;SDS011;9828;54.122;17.974;2023-08-31T01:56:32;1.95;;;1.67;;
19384;SDS011;9828;54.122;17.974;2023-08-31T02:01:53;2.33;;;1.67;;
19384;SDS011;9828;54.122;17.974;2023-08-31T02:07:15;1.88;;;1.55;;
19384;SDS011;9828;54.122;17.974;2023-08-31T02:12:36;5.50;;;1.70;;
19384;SDS011;9828;54.122;17.974;2023-08-31T02:17:58;1.70;;;1.60;;
19384;SDS011;9828;54.122;17.974;2023-08-31T02:23:19;4.30;;;1.58;;
19384;SDS011;9828;54.122;17.974;2023-08-31T02:28:40;2.38;;;1.80;;
19384;SDS011;9828;54.122;17.974;2023-08-31T02:34:01;2.40;;;1.58;;
19384;SDS011;9828;54.122;17.974;2023-08-31T02:39:22;2.47;;;1.60;;
19384;SDS011;9828;54.122;17.974;2023-08-31T02:44:44;3.40;;;1.70;;
19384;SDS011;9828;54.122;17.974;2023-08-31T02:50:06;1.92;;;1.50;;
19384;SDS011;9828;54.122;17.974;2023-08-31T02:55:28;5.72;;;1.60;;
19384;SDS011;9828;54.122;17.974;2023-08-31T03:00:49;1.58;;;1.48;;
19384;SDS011;9828;54.122;17.974;2023-08-31T03:06:11;1.50;;;1.40;;
19384;SDS011;9828;54.122;17.974;2023-08-31T03:11:32;2.35;;;2.10;;
19384;SDS011;9828;54.122;17.974;2023-08-31T03:16:53;3.75;;;1.77;;
19384;SDS011;9828;54.122;17.974;2023-08-31T03:22:14;3.50;;;2.25;;
19384;SDS011;9828;54.122;17.974;2023-08-31T03:27:35;2.55;;;1.88;;
19384;SDS011;9828;54.122;17.974;2023-08-31T03:32:56;2.38;;;1.63;;
19384;SDS011;9828;54.122;17.974;2023-08-31T03:38:17;2.35;;;1.52;;
19384;SDS011;9828;54.122;17.974;2023-08-31T03:43:39;2.53;;;1.63;;
19384;SDS011;9828;54.122;17.974;2023-08-31T03:49:00;2.75;;;1.42;;
19384;SDS011;9828;54.122;17.974;2023-08-31T03:54:23;2.35;;;1.98;;
19384;SDS011;9828;54.122;17.974;2023-08-31T03:59:45;1.85;;;1.48;;
19384;SDS011;9828;54.122;17.974;2023-08-31T04:05:06;3.67;;;1.80;;
19384;SDS011;9828;54.122;17.974;2023-08-31T04:10:30;2.78;;;1.70;;
19384;SDS011;9828;54.122;17.974;2023-08-31T04:15:52;3.10;;;1.95;;
19384;SDS011;9828;54.122;17.974;2023-08-31T04:21:14;2.05;;;1.80;;
19384;SDS011;9828;54.122;17.974;2023-08-31T04:26:35;2.65;;;1.90;;
19384;SDS011;9828;54.122;17.974;2023-08-31T04:31:56;3.53;;;2.15;;
19384;SDS011;9828;54.122;17.974;2023-08-31T04:37:20;1.58;;;1.45;;
19384;SDS011;9828;54.122;17.974;2023-08-31T04:42:42;2.38;;;2.00;;
19384;SDS011;9828;54.122;17.974;2023-08-31T04:48:03;6.35;;;2.08;;
19384;SDS011;9828;54.122;17.974;2023-08-31T04:53:25;3.30;;;2.30;;
19384;SDS011;9828;54.122;17.974;2023-08-31T04:58:46;2.33;;;2.00;;
19384;SDS011;9828;54.122;17.974;2023-08-31T05:04:07;4.05;;;2.20;;
19384;SDS011;9828;54.122;17.974;2023-08-31T05:09:28;4.38;;;3.08;;
19384;SDS011;9828;54.122;17.974;2023-08-31T05:14:52;2.95;;;2.28;;
19384;SDS011;9828;54.122;17.974;2023-08-31T05:20:13;5.90;;;2.55;;
19384;SDS011;9828;54.122;17.974;2023-08-31T05:25:34;2.55;;;2.17;;
19384;SDS011;9828;54.122;17.974;2023-08-31T05:30:56;5.53;;;2.60;;
19384;SDS011;9828;54.122;17.974;2023-08-31T05:36:19;2.40;;;2.15;;
19384;SDS011;9828;54.122;17.974;2023-08-31T05:41:40;3.58;;;2.60;;
19384;SDS011;9828;54.122;17.974;2023-08-31T05:47:01;2.85;;;2.35;;
19384;SDS011;9828;54.122;17.974;2023-08-31T05:52:23;5.18;;;2.50;;
19384;SDS011;9828;54.122;17.974;2023-08-31T05:57:45;2.70;;;2.50;;
19384;SDS011;9828;54.122;17.974;2023-08-31T06:03:06;2.45;;;2.22;;
19384;SDS011;9828;54.122;17.974;2023-08-31T06:08:27;5.57;;;2.28;;
19384;SDS011;9828;54.122;17.974;2023-08-31T06:13:49;5.00;;;2.40;;
19384;SDS011;9828;54.122;17.974;2023-08-31T06:19:10;2.83;;;2.08;;
19384;SDS011;9828;54.122;17.974;2023-08-31T06:24:35;2.72;;;1.70;;
19384;SDS011;9828;54.122;17.974;2023-08-31T06:29:57;4.70;;;3.05;;
19384;SDS011;9828;54.122;17.974;2023-08-31T06:35:18;4.20;;;2.35;;
19384;SDS011;9828;54.122;17.974;2023-08-31T06:40:44;3.25;;;2.30;;
19384;SDS011;9828;54.122;17.974;2023-08-31T06:46:05;3.58;;;2.17;;
19384;SDS011;9828;54.122;17.974;2023-08-31T06:51:37;4.45;;;3.22;;
19384;SDS011;9828;54.122;17.974;2023-08-31T06:56:58;6.72;;;5.03;;
19384;SDS011;9828;54.122;17.974;2023-08-31T07:02:19;4.82;;;3.00;;
19384;SDS011;9828;54.122;17.974;2023-08-31T07:07:42;5.03;;;2.75;;
19384;SDS011;9828;54.122;17.974;2023-08-31T07:13:04;3.97;;;2.70;;
19384;SDS011;9828;54.122;17.974;2023-08-31T07:18:25;6.00;;;2.88;;
19384;SDS011;9828;54.122;17.974;2023-08-31T07:23:46;4.05;;;2.20;;
19384;SDS011;9828;54.122;17.974;2023-08-31T07:29:08;3.95;;;2.40;;
19384;SDS011;9828;54.122;17.974;2023-08-31T07:34:29;8.60;;;2.65;;
19384;SDS011;9828;54.122;17.974;2023-08-31T07:39:51;5.55;;;2.50;;
19384;SDS011;9828;54.122;17.974;2023-08-31T07:45:12;4.70;;;2.53;;
19384;SDS011;9828;54.122;17.974;2023-08-31T07:50:33;3.92;;;2.08;;
19384;SDS011;9828;54.122;17.974;2023-08-31T07:55:55;3.47;;;2.58;;
19384;SDS011;9828;54.122;17.974;2023-08-31T08:01:19;4.53;;;2.10;;
19384;SDS011;9828;54.122;17.974;2023-08-31T08:06:40;7.65;;;2.80;;
19384;SDS011;9828;54.122;17.974;2023-08-31T08:12:01;5.13;;;2.30;;
19384;SDS011;9828;54.122;17.974;2023-08-31T08:17:22;4.50;;;1.95;;
19384;SDS011;9828;54.122;17.974;2023-08-31T08:22:43;4.28;;;1.58;;
19384;SDS011;9828;54.122;17.974;2023-08-31T08:28:05;2.55;;;1.33;;
19384;SDS011;9828;54.122;17.974;2023-08-31T08:33:26;2.33;;;1.40;;
19384;SDS011;9828;54.122;17.974;2023-08-31T08:38:47;3.42;;;0.98;;
19384;SDS011;9828;54.122;17.974;2023-08-31T08:44:09;1.33;;;1.10;;
19384;SDS011;9828;54.122;17.974;2023-08-31T08:49:33;1.08;;;0.80;;
19384;SDS011;9828;54.122;17.974;2023-08-31T08:54:56;1.48;;;0.90;;
19384;SDS011;9828;54.122;17.974;2023-08-31T09:00:18;3.65;;;1.13;;
19384;SDS011;9828;54.122;17.974;2023-08-31T09:05:39;2.08;;;1.35;;
19384;SDS011;9828;54.122;17.974;2023-08-31T09:10:59;1.52;;;1.25;;
19384;SDS011;9828;54.122;17.974;2023-08-31T09:16:25;1.95;;;1.00;;
19384;SDS011;9828;54.122;17.974;2023-08-31T09:21:49;1.23;;;0.93;;
19384;SDS011;9828;54.122;17.974;2023-08-31T09:27:11;1.52;;;1.20;;
19384;SDS011;9828;54.122;17.974;2023-08-31T09:32:32;2.92;;;1.65;;
19384;SDS011;9828;54.122;17.974;2023-08-31T09:37:54;2.55;;;1.52;;
19384;SDS011;9828;54.122;17.974;2023-08-31T09:43:19;1.85;;;1.08;;
19384;SDS011;9828;54.122;17.974;2023-08-31T09:48:43;3.33;;;1.40;;
19384;SDS011;9828;54.122;17.974;2023-08-31T09:54:04;6.28;;;1.40;;
19384;SDS011;9828;54.122;17.974;2023-08-31T09:59:27;1.92;;;1.38;;
19384;SDS011;9828;54.122;17.974;2023-08-31T10:04:49;3.33;;;1.40;;
19384;SDS011;9828;54.122;17.974;2023-08-31T10:10:12;3.83;;;1.50;;
19384;SDS011;9828;54.122;17.974;2023-08-31T10:15:34;1.30;;;1.20;;
19384;SDS011;9828;54.122;17.974;2023-08-31T10:20:56;3.35;;;1.75;;
19384;SDS011;9828;54.122;17.974;2023-08-31T10:26:31;3.08;;;1.70;;
19384;SDS011;9828;54.122;17.974;2023-08-31T10:31:52;3.30;;;1.52;;
19384;SDS011;9828;54.122;17.974;2023-08-31T10:37:19;2.42;;;1.30;;
19384;SDS011;9828;54.122;17.974;2023-08-31T10:42:44;3.92;;;1.60;;
19384;SDS011;9828;54.122;17.974;2023-08-31T10:48:07;2.05;;;1.50;;
19384;SDS011;9828;54.122;17.974;2023-08-31T10:53:28;2.00;;;1.40;;
19384;SDS011;9828;54.122;17.974;2023-08-31T10:59:00;1.20;;;1.10;;
19384;SDS011;9828;54.122;17.974;2023-08-31T11:04:22;3.00;;;1.45;;
19384;SDS011;9828;54.122;17.974;2023-08-31T11:09:47;3.38;;;1.50;;
19384;SDS011;9828;54.122;17.974;2023-08-31T11:15:10;1.48;;;1.35;;
19384;SDS011;9828;54.122;17.974;2023-08-31T11:20:33;1.73;;;1.30;;
19384;SDS011;9828;54.122;17.974;2023-08-31T11:25:54;2.92;;;1.42;;
19384;SDS011;9828;54.122;17.974;2023-08-31T11:31:22;8.00;;;1.75;;
19384;SDS011;9828;54.122;17.974;2023-08-31T11:36:45;6.75;;;3.15;;
19384;SDS011;9828;54.122;17.974;2023-08-31T11:42:07;5.18;;;1.75;;
19384;SDS011;9828;54.122;17.974;2023-08-31T11:47:29;3.67;;;2.08;;
19384;SDS011;9828;54.122;17.974;2023-08-31T11:52:50;6.80;;;2.75;;
19384;SDS011;9828;54.122;17.974;2023-08-31T11:58:13;3.15;;;2.25;;
19384;SDS011;9828;54.122;17.974;2023-08-31T12:03:42;2.97;;;2.25;;
19384;SDS011;9828;54.122;17.974;2023-08-31T12:09:08;2.17;;;1.98;;
19384;SDS011;9828;54.122;17.974;2023-08-31T12:14:30;2.78;;;2.40;;
19384;SDS011;9828;54.122;17.974;2023-08-31T12:19:51;6.18;;;3.53;;
19384;SDS011;9828;54.122;17.974;2023-08-31T12:25:19;8.50;;;5.38;;
19384;SDS011;9828;54.122;17.974;2023-08-31T12:30:42;14.30;;;4.82;;
19384;SDS011;9828;54.122;17.974;2023-08-31T12:36:07;5.53;;;4.25;;
19384;SDS011;9828;54.122;17.974;2023-08-31T12:41:28;5.35;;;3.97;;
19384;SDS011;9828;54.122;17.974;2023-08-31T12:46:49;4.85;;;2.90;;
19384;SDS011;9828;54.122;17.974;2023-08-31T12:52:12;3.88;;;2.95;;
19384;SDS011;9828;54.122;17.974;2023-08-31T12:57:34;4.97;;;4.10;;
19384;SDS011;9828;54.122;17.974;2023-08-31T13:02:56;4.35;;;3.20;;
19384;SDS011;9828;54.122;17.974;2023-08-31T13:08:17;8.90;;;5.63;;
19384;SDS011;9828;54.122;17.974;2023-08-31T13:13:38;6.63;;;5.45;;
19384;SDS011;9828;54.122;17.974;2023-08-31T13:19:00;5.38;;;3.83;;
19384;SDS011;9828;54.122;17.974;2023-08-31T13:24:22;6.10;;;3.10;;
19384;SDS011;9828;54.122;17.974;2023-08-31T13:29:44;3.00;;;2.78;;
19384;SDS011;9828;54.122;17.974;2023-08-31T13:35:05;3.10;;;2.80;;
19384;SDS011;9828;54.122;17.974;2023-08-31T13:40:28;2.95;;;2.70;;
19384;SDS011;9828;54.122;17.974;2023-08-31T13:45:50;3.08;;;2.50;;
19384;SDS011;9828;54.122;17.974;2023-08-31T13:51:11;4.07;;;2.45;;
19384;SDS011;9828;54.122;17.974;2023-08-31T13:56:32;2.70;;;2.50;;
19384;SDS011;9828;54.122;17.974;2023-08-31T14:01:54;3.40;;;3.10;;
19384;SDS011;9828;54.122;17.974;2023-08-31T14:07:16;3.03;;;2.70;;
19384;SDS011;9828;54.122;17.974;2023-08-31T14:12:38;3.95;;;2.67;;
19384;SDS011;9828;54.122;17.974;2023-08-31T14:17:59;2.60;;;2.40;;
19384;SDS011;9828;54.122;17.974;2023-08-31T14:23:20;2.42;;;1.98;;
19384;SDS011;9828;54.122;17.974;2023-08-31T14:28:41;2.40;;;2.20;;
19384;SDS011;9828;54.122;17.974;2023-08-31T14:34:03;3.10;;;2.60;;
19384;SDS011;9828;54.122;17.974;2023-08-31T14:39:24;2.50;;;2.30;;
19384;SDS011;9828;54.122;17.974;2023-08-31T14:44:49;10.73;;;5.93;;
19384;SDS011;9828;54.122;17.974;2023-08-31T14:50:11;5.90;;;3.40;;
19384;SDS011;9828;54.122;17.974;2023-08-31T14:55:32;3.53;;;2.40;;
19384;SDS011;9828;54.122;17.974;2023-08-31T15:00:55;2.30;;;2.10;;
19384;SDS011;9828;54.122;17.974;2023-08-31T15:06:17;2.70;;;2.47;;
19384;SDS011;9828;54.122;17.974;2023-08-31T15:11:38;3.83;;;2.85;;
19384;SDS011;9828;54.122;17.974;2023-08-31T15:16:59;3.40;;;2.60;;
19384;SDS011;9828;54.122;17.974;2023-08-31T15:22:21;3.35;;;2.65;;
19384;SDS011;9828;54.122;17.974;2023-08-31T15:27:42;3.42;;;2.90;;
19384;SDS011;9828;54.122;17.974;2023-08-31T15:33:03;2.03;;;1.75;;
19384;SDS011;9828;54.122;17.974;2023-08-31T15:38:25;2.42;;;1.77;;
19384;SDS011;9828;54.122;17.974;2023-08-31T15:43:46;1.90;;;1.77;;
19384;SDS011;9828;54.122;17.974;2023-08-31T15:49:08;3.28;;;2.33;;
19384;SDS011;9828;54.122;17.974;2023-08-31T15:54:29;7.88;;;3.65;;
19384;SDS011;9828;54.122;17.974;2023-08-31T15:59:50;2.83;;;2.50;;
19384;SDS011;9828;54.122;17.974;2023-08-31T16:05:12;2.90;;;2.60;;
19384;SDS011;9828;54.122;17.974;2023-08-31T16:10:33;3.47;;;2.45;;
19384;SDS011;9828;54.122;17.974;2023-08-31T16:15:54;3.50;;;2.97;;
19384;SDS011;9828;54.122;17.974;2023-08-31T16:21:16;4.95;;;3.13;;
19384;SDS011;9828;54.122;17.974;2023-08-31T16:26:38;2.80;;;2.60;;
19384;SDS011;9828;54.122;17.974;2023-08-31T16:31:59;4.43;;;3.13;;
19384;SDS011;9828;54.122;17.974;2023-08-31T16:37:21;4.40;;;3.25;;
19384;SDS011;9828;54.122;17.974;2023-08-31T16:42:42;17.90;;;10.65;;
19384;SDS011;9828;54.122;17.974;2023-08-31T16:48:03;7.07;;;4.35;;
19384;SDS011;9828;54.122;17.974;2023-08-31T16:53:25;9.38;;;5.82;;
19384;SDS011;9828;54.122;17.974;2023-08-31T16:58:46;9.35;;;6.50;;
19384;SDS011;9828;54.122;17.974;2023-08-31T17:04:07;9.27;;;6.28;;
19384;SDS011;9828;54.122;17.974;2023-08-31T17:09:28;8.15;;;5.10;;
19384;SDS011;9828;54.122;17.974;2023-08-31T17:14:50;7.13;;;5.00;;
19384;SDS011;9828;54.122;17.974;2023-08-31T17:20:12;4.63;;;3.50;;
19384;SDS011;9828;54.122;17.974;2023-08-31T17:25:39;4.55;;;2.90;;
19384;SDS011;9828;54.122;17.974;2023-08-31T17:31:00;8.15;;;3.95;;
19384;SDS011;9828;54.122;17.974;2023-08-31T17:36:21;6.25;;;3.80;;
19384;SDS011;9828;54.122;17.974;2023-08-31T17:41:42;2.88;;;2.35;;
19384;SDS011;9828;54.122;17.974;2023-08-31T17:47:05;6.28;;;3.00;;
19384;SDS011;9828;54.122;17.974;2023-08-31T17:52:26;5.57;;;3.00;;
19384;SDS011;9828;54.122;17.974;2023-08-31T17:57:48;3.10;;;2.80;;
19384;SDS011;9828;54.122;17.974;2023-08-31T18:03:09;10.10;;;4.60;;
19384;SDS011;9828;54.122;17.974;2023-08-31T18:08:31;4.55;;;3.75;;
19384;SDS011;9828;54.122;17.974;2023-08-31T18:13:54;3.58;;;2.63;;
19384;SDS011;9828;54.122;17.974;2023-08-31T18:19:15;3.03;;;2.60;;
19384;SDS011;9828;54.122;17.974;2023-08-31T18:24:36;5.75;;;3.97;;
19384;SDS011;9828;54.122;17.974;2023-08-31T18:29:57;8.27;;;4.05;;
19384;SDS011;9828;54.122;17.974;2023-08-31T18:35:19;8.35;;;5.78;;
19384;SDS011;9828;54.122;17.974;2023-08-31T18:40:40;10.07;;;6.97;;
19384;SDS011;9828;54.122;17.974;2023-08-31T18:46:02;9.57;;;8.25;;
19384;SDS011;9828;54.122;17.974;2023-08-31T18:51:24;7.70;;;6.90;;
19384;SDS011;9828;54.122;17.974;2023-08-31T18:56:45;11.60;;;8.40;;
19384;SDS011;9828;54.122;17.974;2023-08-31T19:02:07;14.52;;;10.73;;
19384;SDS011;9828;54.122;17.974;2023-08-31T19:07:28;12.23;;;9.80;;
19384;SDS011;9828;54.122;17.974;2023-08-31T19:12:49;10.73;;;8.27;;
19384;SDS011;9828;54.122;17.974;2023-08-31T19:18:10;7.82;;;5.85;;
19384;SDS011;9828;54.122;17.974;2023-08-31T19:23:32;6.22;;;4.35;;
19384;SDS011;9828;54.122;17.974;2023-08-31T19:28:53;6.63;;;4.38;;
19384;SDS011;9828;54.122;17.974;2023-08-31T19:34:14;7.18;;;4.95;;
19384;SDS011;9828;54.122;17.974;2023-08-31T19:39:35;5.97;;;4.20;;
19384;SDS011;9828;54.122;17.974;2023-08-31T19:44:56;4.90;;;3.95;;
19384;SDS011;9828;54.122;17.974;2023-08-31T19:50:17;4.85;;;3.90;;
19384;SDS011;9828;54.122;17.974;2023-08-31T19:55:42;3.95;;;3.17;;
19384;SDS011;9828;54.122;17.974;2023-08-31T20:01:04;5.85;;;3.83;;
19384;SDS011;9828;54.122;17.974;2023-08-31T20:06:25;4.70;;;3.53;;
19384;SDS011;9828;54.122;17.974;2023-08-31T20:11:46;6.78;;;3.40;;
19384;SDS011;9828;54.122;17.974;2023-08-31T20:17:07;5.18;;;3.30;;
19384;SDS011;9828;54.122;17.974;2023-08-31T20:22:29;4.75;;;3.63;;
19384;SDS011;9828;54.122;17.974;2023-08-31T20:27:51;4.55;;;3.55;;
19384;SDS011;9828;54.122;17.974;2023-08-31T20:33:12;7.30;;;4.50;;
19384;SDS011;9828;54.122;17.974;2023-08-31T20:38:33;9.52;;;5.00;;
19384;SDS011;9828;54.122;17.974;2023-08-31T20:43:55;6.80;;;4.15;;
19384;SDS011;9828;54.122;17.974;2023-08-31T20:49:16;3.60;;;3.28;;
19384;SDS011;9828;54.122;17.974;2023-08-31T20:54:39;39.80;;;17.98;;
19384;SDS011;9828;54.122;17.974;2023-08-31T21:00:00;20.42;;;10.88;;
19384;SDS011;9828;54.122;17.974;2023-08-31T21:05:23;14.63;;;7.30;;
19384;SDS011;9828;54.122;17.974;2023-08-31T21:10:44;14.63;;;8.48;;
19384;SDS011;9828;54.122;17.974;2023-08-31T21:16:06;13.45;;;6.57;;
19384;SDS011;9828;54.122;17.974;2023-08-31T21:21:27;10.65;;;5.40;;
19384;SDS011;9828;54.122;17.974;2023-08-31T21:26:48;7.82;;;4.68;;
19384;SDS011;9828;54.122;17.974;2023-08-31T21:32:10;13.27;;;5.45;;
19384;SDS011;9828;54.122;17.974;2023-08-31T21:37:31;5.47;;;3.55;;
19384;SDS011;9828;54.122;17.974;2023-08-31T21:42:53;8.27;;;5.45;;
19384;SDS011;9828;54.122;17.974;2023-08-31T21:48:14;6.03;;;3.60;;
19384;SDS011;9828;54.122;17.974;2023-08-31T21:53:35;5.10;;;3.42;;
19384;SDS011;9828;54.122;17.974;2023-08-31T21:58:56;5.57;;;2.93;;
19384;SDS011;9828;54.122;17.974;2023-08-31T22:04:17;4.73;;;3.10;;
19384;SDS011;9828;54.122;17.974;2023-08-31T22:09:39;5.97;;;3.23;;
19384;SDS011;9828;54.122;17.974;2023-08-31T22:15:01;2.90;;;2.50;;
19384;SDS011;9828;54.122;17.974;2023-08-31T22:20:25;5.90;;;3.33;;
19384;SDS011;9828;54.122;17.974;2023-08-31T22:25:50;3.43;;;2.30;;
19384;SDS011;9828;54.122;17.974;2023-08-31T22:31:11;3.20;;;2.43;;
19384;SDS011;9828;54.122;17.974;2023-08-31T22:36:32;3.37;;;2.00;;
19384;SDS011;9828;54.122;17.974;2023-08-31T22:41:53;4.00;;;2.90;;
19384;SDS011;9828;54.122;17.974;2023-08-31T22:47:14;2.43;;;2.10;;
19384;SDS011;9828;54.122;17.974;2023-08-31T22:52:36;4.57;;;2.20;;
19384;SDS011;9828;54.122;17.974;2023-08-31T22:57:57;4.23;;;2.07;;
19384;SDS011;9828;54.122;17.974;2023-08-31T23:03:18;2.17;;;1.90;;
19384;SDS011;9828;54.122;17.974;2023-08-31T23:08:40;6.27;;;1.90;;
19384;SDS011;9828;54.122;17.974;2023-08-31T23:14:01;2.50;;;1.57;;
19384;SDS011;9828;54.122;17.974;2023-08-31T23:19:23;2.33;;;1.90;;
19384;SDS011;9828;54.122;17.974;2023-08-31T23:24:45;3.07;;;1.83;;
19384;SDS011;9828;54.122;17.974;2023-08-31T23:30:07;3.83;;;1.97;;
19384;SDS011;9828;54.122;17.974;2023-08-31T23:35:28;5.00;;;1.90;;
19384;SDS011;9828;54.122;17.974;2023-08-31T23:40:55;3.57;;;2.17;;
19384;SDS011;9828;54.122;17.974;2023-08-31T23:46:17;2.60;;;1.97;;
19384;SDS011;9828;54.122;17.974;2023-08-31T23:51:38;2.20;;;1.57;;
19384;SDS011;9828;54.122;17.974;2023-08-31T23:56:59;6.50;;;1.73;;
